sensor_id;sensor_type;location;lat;lon;timestamp;P1;durP1;ratioP1;P2;durP2;ratioP2
23390;SDS011;11868;45.606;5.302;2023-06-24T00:01:14;3.25;;;2.60;;
23390;SDS011;11868;45.606;5.302;2023-06-24T00:03:40;4.63;;;2.70;;
23390;SDS011;11868;45.606;5.302;2023-06-24T00:06:06;4.22;;;2.80;;
23390;SDS011;11868;45.606;5.302;2023-06-24T00:08:31;5.13;;;2.75;;
23390;SDS011;11868;45.606;5.302;2023-06-24T00:11:00;5.40;;;3.03;;
23390;SDS011;11868;45.606;5.302;2023-06-24T00:13:27;4.40;;;3.00;;
23390;SDS011;11868;45.606;5.302;2023-06-24T00:15:53;4.82;;;3.00;;
23390;SDS011;11868;45.606;5.302;2023-06-24T00:18:19;4.05;;;2.90;;
23390;SDS011;11868;45.606;5.302;2023-06-24T00:20:45;4.15;;;2.92;;
23390;SDS011;11868;45.606;5.302;2023-06-24T00:23:11;6.95;;;2.95;;
23390;SDS011;11868;45.606;5.302;2023-06-24T00:25:39;5.15;;;3.00;;
23390;SDS011;11868;45.606;5.302;2023-06-24T00:28:04;4.43;;;3.13;;
23390;SDS011;11868;45.606;5.302;2023-06-24T00:30:30;4.38;;;3.20;;
23390;SDS011;11868;45.606;5.302;2023-06-24T00:32:55;3.95;;;2.75;;
23390;SDS011;11868;45.606;5.302;2023-06-24T00:35:21;4.72;;;2.90;;
23390;SDS011;11868;45.606;5.302;2023-06-24T00:37:46;6.03;;;3.00;;
23390;SDS011;11868;45.606;5.302;2023-06-24T00:40:12;5.68;;;3.20;;
23390;SDS011;11868;45.606;5.302;2023-06-24T00:42:39;3.60;;;2.88;;
23390;SDS011;11868;45.606;5.302;2023-06-24T00:45:05;6.00;;;2.97;;
23390;SDS011;11868;45.606;5.302;2023-06-24T00:47:32;5.22;;;3.33;;
23390;SDS011;11868;45.606;5.302;2023-06-24T00:49:58;6.97;;;3.17;;
23390;SDS011;11868;45.606;5.302;2023-06-24T00:52:23;4.50;;;2.88;;
23390;SDS011;11868;45.606;5.302;2023-06-24T00:54:49;7.35;;;3.30;;
23390;SDS011;11868;45.606;5.302;2023-06-24T00:57:14;4.85;;;3.00;;
23390;SDS011;11868;45.606;5.302;2023-06-24T00:59:42;8.48;;;3.38;;
23390;SDS011;11868;45.606;5.302;2023-06-24T01:02:08;4.93;;;3.00;;
23390;SDS011;11868;45.606;5.302;2023-06-24T01:04:34;6.30;;;3.17;;
23390;SDS011;11868;45.606;5.302;2023-06-24T01:07:00;4.50;;;3.00;;
23390;SDS011;11868;45.606;5.302;2023-06-24T01:09:25;4.47;;;3.40;;
23390;SDS011;11868;45.606;5.302;2023-06-24T01:11:51;7.05;;;3.17;;
23390;SDS011;11868;45.606;5.302;2023-06-24T01:14:17;8.30;;;3.50;;
23390;SDS011;11868;45.606;5.302;2023-06-24T01:28:27;6.38;;;3.13;;
23390;SDS011;11868;45.606;5.302;2023-06-24T01:33:13;5.50;;;3.50;;
23390;SDS011;11868;45.606;5.302;2023-06-24T01:35:40;5.70;;;3.28;;
23390;SDS011;11868;45.606;5.302;2023-06-24T01:38:10;5.68;;;3.83;;
23390;SDS011;11868;45.606;5.302;2023-06-24T01:40:45;6.00;;;3.50;;
23390;SDS011;11868;45.606;5.302;2023-06-24T01:43:11;4.22;;;3.55;;
23390;SDS011;11868;45.606;5.302;2023-06-24T01:45:42;4.75;;;3.40;;
23390;SDS011;11868;45.606;5.302;2023-06-24T01:48:14;4.75;;;3.63;;
23390;SDS011;11868;45.606;5.302;2023-06-24T01:50:47;5.35;;;3.30;;
23390;SDS011;11868;45.606;5.302;2023-06-24T01:53:15;5.95;;;3.88;;
23390;SDS011;11868;45.606;5.302;2023-06-24T01:55:41;4.65;;;3.42;;
23390;SDS011;11868;45.606;5.302;2023-06-24T01:58:07;4.10;;;3.50;;
23390;SDS011;11868;45.606;5.302;2023-06-24T02:00:33;6.30;;;3.47;;
23390;SDS011;11868;45.606;5.302;2023-06-24T02:03:00;4.63;;;3.50;;
23390;SDS011;11868;45.606;5.302;2023-06-24T02:05:26;8.20;;;3.63;;
23390;SDS011;11868;45.606;5.302;2023-06-24T02:07:52;6.20;;;3.45;;
23390;SDS011;11868;45.606;5.302;2023-06-24T02:10:18;8.32;;;3.28;;
23390;SDS011;11868;45.606;5.302;2023-06-24T02:12:46;3.30;;;3.00;;
23390;SDS011;11868;45.606;5.302;2023-06-24T02:15:13;6.32;;;3.50;;
23390;SDS011;11868;45.606;5.302;2023-06-24T02:17:39;4.90;;;3.35;;
23390;SDS011;11868;45.606;5.302;2023-06-24T02:20:06;4.78;;;3.45;;
23390;SDS011;11868;45.606;5.302;2023-06-24T02:22:33;5.32;;;3.33;;
23390;SDS011;11868;45.606;5.302;2023-06-24T02:24:59;5.93;;;3.70;;
23390;SDS011;11868;45.606;5.302;2023-06-24T02:27:25;7.28;;;3.00;;
23390;SDS011;11868;45.606;5.302;2023-06-24T02:29:50;4.35;;;3.00;;
23390;SDS011;11868;45.606;5.302;2023-06-24T02:32:16;5.53;;;3.20;;
23390;SDS011;11868;45.606;5.302;2023-06-24T02:34:41;4.18;;;3.20;;
23390;SDS011;11868;45.606;5.302;2023-06-24T02:37:07;6.95;;;3.63;;
23390;SDS011;11868;45.606;5.302;2023-06-24T02:39:32;6.43;;;3.33;;
23390;SDS011;11868;45.606;5.302;2023-06-24T02:41:58;4.43;;;3.65;;
23390;SDS011;11868;45.606;5.302;2023-06-24T02:44:23;4.63;;;3.08;;
23390;SDS011;11868;45.606;5.302;2023-06-24T02:46:48;4.70;;;3.22;;
23390;SDS011;11868;45.606;5.302;2023-06-24T02:49:15;4.82;;;3.00;;
23390;SDS011;11868;45.606;5.302;2023-06-24T02:51:41;5.38;;;3.25;;
23390;SDS011;11868;45.606;5.302;2023-06-24T02:54:06;6.88;;;3.33;;
23390;SDS011;11868;45.606;5.302;2023-06-24T02:56:33;4.05;;;3.30;;
23390;SDS011;11868;45.606;5.302;2023-06-24T02:59:00;4.75;;;3.55;;
23390;SDS011;11868;45.606;5.302;2023-06-24T03:01:25;4.72;;;3.50;;
23390;SDS011;11868;45.606;5.302;2023-06-24T03:03:55;5.78;;;3.47;;
23390;SDS011;11868;45.606;5.302;2023-06-24T03:06:21;4.70;;;3.20;;
23390;SDS011;11868;45.606;5.302;2023-06-24T03:08:47;4.32;;;3.50;;
23390;SDS011;11868;45.606;5.302;2023-06-24T03:11:13;4.43;;;3.22;;
23390;SDS011;11868;45.606;5.302;2023-06-24T03:13:39;4.30;;;3.42;;
23390;SDS011;11868;45.606;5.302;2023-06-24T03:16:04;5.65;;;3.25;;
23390;SDS011;11868;45.606;5.302;2023-06-24T03:18:30;5.03;;;3.58;;
23390;SDS011;11868;45.606;5.302;2023-06-24T03:20:55;7.80;;;3.63;;
23390;SDS011;11868;45.606;5.302;2023-06-24T03:23:21;5.88;;;3.85;;
23390;SDS011;11868;45.606;5.302;2023-06-24T03:25:46;4.63;;;3.25;;
23390;SDS011;11868;45.606;5.302;2023-06-24T03:28:11;5.13;;;3.33;;
23390;SDS011;11868;45.606;5.302;2023-06-24T03:30:37;6.00;;;3.60;;
23390;SDS011;11868;45.606;5.302;2023-06-24T03:33:02;6.72;;;3.80;;
23390;SDS011;11868;45.606;5.302;2023-06-24T03:35:27;5.97;;;3.60;;
23390;SDS011;11868;45.606;5.302;2023-06-24T03:37:54;7.55;;;3.60;;
23390;SDS011;11868;45.606;5.302;2023-06-24T03:40:19;4.78;;;3.65;;
23390;SDS011;11868;45.606;5.302;2023-06-24T03:42:45;6.22;;;3.80;;
23390;SDS011;11868;45.606;5.302;2023-06-24T03:45:10;5.15;;;3.75;;
23390;SDS011;11868;45.606;5.302;2023-06-24T03:47:36;4.28;;;3.67;;
23390;SDS011;11868;45.606;5.302;2023-06-24T03:50:01;7.45;;;3.40;;
23390;SDS011;11868;45.606;5.302;2023-06-24T03:52:26;5.95;;;3.90;;
23390;SDS011;11868;45.606;5.302;2023-06-24T03:54:52;5.00;;;3.65;;
23390;SDS011;11868;45.606;5.302;2023-06-24T03:57:18;5.07;;;3.70;;
23390;SDS011;11868;45.606;5.302;2023-06-24T03:59:43;3.92;;;3.30;;
23390;SDS011;11868;45.606;5.302;2023-06-24T04:02:09;10.35;;;3.88;;
23390;SDS011;11868;45.606;5.302;2023-06-24T04:04:35;6.63;;;3.28;;
23390;SDS011;11868;45.606;5.302;2023-06-24T04:07:00;5.53;;;3.30;;
23390;SDS011;11868;45.606;5.302;2023-06-24T04:09:26;7.32;;;3.50;;
23390;SDS011;11868;45.606;5.302;2023-06-24T04:11:51;4.43;;;3.45;;
23390;SDS011;11868;45.606;5.302;2023-06-24T04:14:17;5.53;;;3.70;;
23390;SDS011;11868;45.606;5.302;2023-06-24T04:16:42;5.25;;;3.40;;
23390;SDS011;11868;45.606;5.302;2023-06-24T04:19:08;7.10;;;3.70;;
23390;SDS011;11868;45.606;5.302;2023-06-24T04:21:33;7.47;;;4.03;;
23390;SDS011;11868;45.606;5.302;2023-06-24T04:23:59;6.72;;;3.85;;
23390;SDS011;11868;45.606;5.302;2023-06-24T04:26:24;6.03;;;3.72;;
23390;SDS011;11868;45.606;5.302;2023-06-24T04:28:49;4.82;;;3.60;;
23390;SDS011;11868;45.606;5.302;2023-06-24T04:31:15;5.90;;;3.22;;
23390;SDS011;11868;45.606;5.302;2023-06-24T04:33:41;6.05;;;4.00;;
23390;SDS011;11868;45.606;5.302;2023-06-24T04:36:06;6.93;;;4.07;;
23390;SDS011;11868;45.606;5.302;2023-06-24T04:38:32;8.52;;;4.25;;
23390;SDS011;11868;45.606;5.302;2023-06-24T04:40:57;6.72;;;4.00;;
23390;SDS011;11868;45.606;5.302;2023-06-24T04:43:24;4.53;;;3.78;;
23390;SDS011;11868;45.606;5.302;2023-06-24T04:45:50;5.07;;;4.05;;
23390;SDS011;11868;45.606;5.302;2023-06-24T04:48:15;5.13;;;4.10;;
23390;SDS011;11868;45.606;5.302;2023-06-24T04:50:41;8.63;;;3.95;;
23390;SDS011;11868;45.606;5.302;2023-06-24T04:53:06;6.65;;;4.00;;
23390;SDS011;11868;45.606;5.302;2023-06-24T04:55:32;6.32;;;4.30;;
23390;SDS011;11868;45.606;5.302;2023-06-24T04:57:57;5.85;;;4.18;;
23390;SDS011;11868;45.606;5.302;2023-06-24T05:00:23;5.68;;;4.30;;
23390;SDS011;11868;45.606;5.302;2023-06-24T05:02:49;5.88;;;4.28;;
23390;SDS011;11868;45.606;5.302;2023-06-24T05:05:15;7.25;;;4.40;;
23390;SDS011;11868;45.606;5.302;2023-06-24T05:07:40;6.65;;;4.05;;
23390;SDS011;11868;45.606;5.302;2023-06-24T05:10:06;6.22;;;4.72;;
23390;SDS011;11868;45.606;5.302;2023-06-24T05:12:31;7.15;;;4.00;;
23390;SDS011;11868;45.606;5.302;2023-06-24T05:14:56;6.72;;;4.13;;
23390;SDS011;11868;45.606;5.302;2023-06-24T05:17:22;5.50;;;4.28;;
23390;SDS011;11868;45.606;5.302;2023-06-24T05:19:47;9.10;;;4.90;;
23390;SDS011;11868;45.606;5.302;2023-06-24T05:22:13;5.38;;;4.57;;
23390;SDS011;11868;45.606;5.302;2023-06-24T05:24:38;9.70;;;4.57;;
23390;SDS011;11868;45.606;5.302;2023-06-24T05:27:04;8.55;;;4.15;;
23390;SDS011;11868;45.606;5.302;2023-06-24T05:29:30;9.25;;;4.03;;
23390;SDS011;11868;45.606;5.302;2023-06-24T05:31:56;5.63;;;3.97;;
23390;SDS011;11868;45.606;5.302;2023-06-24T05:34:22;5.25;;;3.88;;
23390;SDS011;11868;45.606;5.302;2023-06-24T05:36:48;8.77;;;4.25;;
23390;SDS011;11868;45.606;5.302;2023-06-24T05:39:13;9.77;;;4.22;;
23390;SDS011;11868;45.606;5.302;2023-06-24T05:41:39;8.90;;;4.18;;
23390;SDS011;11868;45.606;5.302;2023-06-24T05:44:07;5.47;;;4.65;;
23390;SDS011;11868;45.606;5.302;2023-06-24T05:46:34;9.00;;;3.88;;
23390;SDS011;11868;45.606;5.302;2023-06-24T05:49:00;9.68;;;4.55;;
23390;SDS011;11868;45.606;5.302;2023-06-24T05:51:25;8.45;;;4.55;;
23390;SDS011;11868;45.606;5.302;2023-06-24T05:53:51;9.50;;;4.38;;
23390;SDS011;11868;45.606;5.302;2023-06-24T05:56:17;8.82;;;4.15;;
23390;SDS011;11868;45.606;5.302;2023-06-24T05:58:43;7.97;;;4.30;;
23390;SDS011;11868;45.606;5.302;2023-06-24T06:01:11;9.98;;;4.32;;
23390;SDS011;11868;45.606;5.302;2023-06-24T06:03:37;10.20;;;4.50;;
23390;SDS011;11868;45.606;5.302;2023-06-24T06:06:02;8.95;;;4.60;;
23390;SDS011;11868;45.606;5.302;2023-06-24T06:08:28;10.93;;;4.57;;
23390;SDS011;11868;45.606;5.302;2023-06-24T06:10:53;6.82;;;4.15;;
23390;SDS011;11868;45.606;5.302;2023-06-24T06:13:19;8.70;;;4.20;;
23390;SDS011;11868;45.606;5.302;2023-06-24T06:15:44;6.85;;;4.50;;
23390;SDS011;11868;45.606;5.302;2023-06-24T06:18:10;5.00;;;3.90;;
23390;SDS011;11868;45.606;5.302;2023-06-24T06:20:35;5.90;;;4.28;;
23390;SDS011;11868;45.606;5.302;2023-06-24T06:23:00;6.97;;;4.53;;
23390;SDS011;11868;45.606;5.302;2023-06-24T06:25:26;10.00;;;4.20;;
23390;SDS011;11868;45.606;5.302;2023-06-24T06:27:51;7.90;;;4.35;;
23390;SDS011;11868;45.606;5.302;2023-06-24T06:30:17;6.22;;;4.13;;
23390;SDS011;11868;45.606;5.302;2023-06-24T06:32:42;6.80;;;4.38;;
23390;SDS011;11868;45.606;5.302;2023-06-24T06:35:08;6.82;;;4.32;;
23390;SDS011;11868;45.606;5.302;2023-06-24T06:37:33;5.40;;;4.45;;
23390;SDS011;11868;45.606;5.302;2023-06-24T06:39:59;6.25;;;4.63;;
23390;SDS011;11868;45.606;5.302;2023-06-24T06:42:24;7.20;;;5.13;;
23390;SDS011;11868;45.606;5.302;2023-06-24T06:44:51;8.18;;;4.68;;
23390;SDS011;11868;45.606;5.302;2023-06-24T06:47:16;6.50;;;4.57;;
23390;SDS011;11868;45.606;5.302;2023-06-24T06:49:41;5.32;;;3.95;;
23390;SDS011;11868;45.606;5.302;2023-06-24T06:52:07;6.65;;;3.90;;
23390;SDS011;11868;45.606;5.302;2023-06-24T06:54:32;7.43;;;4.40;;
23390;SDS011;11868;45.606;5.302;2023-06-24T06:57:01;6.57;;;4.70;;
23390;SDS011;11868;45.606;5.302;2023-06-24T06:59:28;8.52;;;4.60;;
23390;SDS011;11868;45.606;5.302;2023-06-24T07:01:54;12.45;;;4.40;;
23390;SDS011;11868;45.606;5.302;2023-06-24T07:04:19;9.50;;;4.47;;
23390;SDS011;11868;45.606;5.302;2023-06-24T07:06:44;7.00;;;4.65;;
23390;SDS011;11868;45.606;5.302;2023-06-24T07:09:10;8.82;;;5.10;;
23390;SDS011;11868;45.606;5.302;2023-06-24T07:11:35;6.28;;;4.75;;
23390;SDS011;11868;45.606;5.302;2023-06-24T07:14:02;9.07;;;4.43;;
23390;SDS011;11868;45.606;5.302;2023-06-24T07:16:27;8.55;;;5.22;;
23390;SDS011;11868;45.606;5.302;2023-06-24T07:18:52;7.53;;;4.35;;
23390;SDS011;11868;45.606;5.302;2023-06-24T07:21:18;6.38;;;4.47;;
23390;SDS011;11868;45.606;5.302;2023-06-24T07:23:43;6.38;;;4.43;;
23390;SDS011;11868;45.606;5.302;2023-06-24T07:26:09;5.90;;;4.70;;
23390;SDS011;11868;45.606;5.302;2023-06-24T07:28:34;5.72;;;4.72;;
23390;SDS011;11868;45.606;5.302;2023-06-24T07:31:00;4.97;;;3.90;;
23390;SDS011;11868;45.606;5.302;2023-06-24T07:33:25;5.93;;;4.82;;
23390;SDS011;11868;45.606;5.302;2023-06-24T07:35:50;7.32;;;4.60;;
23390;SDS011;11868;45.606;5.302;2023-06-24T07:38:16;5.80;;;4.63;;
23390;SDS011;11868;45.606;5.302;2023-06-24T07:40:41;7.35;;;4.32;;
23390;SDS011;11868;45.606;5.302;2023-06-24T07:43:07;5.63;;;3.90;;
23390;SDS011;11868;45.606;5.302;2023-06-24T07:45:32;5.78;;;4.50;;
23390;SDS011;11868;45.606;5.302;2023-06-24T07:47:57;4.93;;;3.80;;
23390;SDS011;11868;45.606;5.302;2023-06-24T07:50:23;7.97;;;4.32;;
23390;SDS011;11868;45.606;5.302;2023-06-24T07:52:49;8.65;;;4.03;;
23390;SDS011;11868;45.606;5.302;2023-06-24T07:55:14;6.10;;;4.20;;
23390;SDS011;11868;45.606;5.302;2023-06-24T07:57:40;13.25;;;4.18;;
23390;SDS011;11868;45.606;5.302;2023-06-24T08:00:06;6.00;;;3.88;;
23390;SDS011;11868;45.606;5.302;2023-06-24T08:05:00;10.65;;;4.43;;
23390;SDS011;11868;45.606;5.302;2023-06-24T08:07:25;5.72;;;4.10;;
23390;SDS011;11868;45.606;5.302;2023-06-24T08:09:50;7.35;;;4.28;;
23390;SDS011;11868;45.606;5.302;2023-06-24T08:12:16;7.40;;;4.35;;
23390;SDS011;11868;45.606;5.302;2023-06-24T08:14:41;7.80;;;4.40;;
23390;SDS011;11868;45.606;5.302;2023-06-24T08:17:06;6.15;;;3.95;;
23390;SDS011;11868;45.606;5.302;2023-06-24T08:19:32;11.90;;;4.22;;
23390;SDS011;11868;45.606;5.302;2023-06-24T08:21:57;5.53;;;4.28;;
23390;SDS011;11868;45.606;5.302;2023-06-24T08:24:22;5.22;;;4.32;;
23390;SDS011;11868;45.606;5.302;2023-06-24T08:26:48;8.80;;;4.40;;
23390;SDS011;11868;45.606;5.302;2023-06-24T08:29:13;8.23;;;4.30;;
23390;SDS011;11868;45.606;5.302;2023-06-24T08:31:39;6.47;;;4.30;;
23390;SDS011;11868;45.606;5.302;2023-06-24T08:34:04;5.07;;;4.38;;
23390;SDS011;11868;45.606;5.302;2023-06-24T08:36:31;7.93;;;3.90;;
23390;SDS011;11868;45.606;5.302;2023-06-24T08:38:57;5.07;;;4.00;;
23390;SDS011;11868;45.606;5.302;2023-06-24T08:41:22;6.18;;;4.10;;
23390;SDS011;11868;45.606;5.302;2023-06-24T08:43:49;5.68;;;4.10;;
23390;SDS011;11868;45.606;5.302;2023-06-24T08:46:16;6.15;;;4.50;;
23390;SDS011;11868;45.606;5.302;2023-06-24T08:48:42;5.70;;;3.80;;
23390;SDS011;11868;45.606;5.302;2023-06-24T08:51:08;6.38;;;4.47;;
23390;SDS011;11868;45.606;5.302;2023-06-24T08:53:35;4.57;;;3.70;;
23390;SDS011;11868;45.606;5.302;2023-06-24T08:56:01;5.63;;;3.90;;
23390;SDS011;11868;45.606;5.302;2023-06-24T08:58:26;10.07;;;4.13;;
23390;SDS011;11868;45.606;5.302;2023-06-24T09:00:52;7.70;;;4.18;;
23390;SDS011;11868;45.606;5.302;2023-06-24T09:03:17;9.40;;;3.90;;
23390;SDS011;11868;45.606;5.302;2023-06-24T09:05:43;7.60;;;4.05;;
23390;SDS011;11868;45.606;5.302;2023-06-24T09:08:09;4.07;;;3.67;;
23390;SDS011;11868;45.606;5.302;2023-06-24T09:10:35;7.63;;;4.22;;
23390;SDS011;11868;45.606;5.302;2023-06-24T09:13:02;10.95;;;4.00;;
23390;SDS011;11868;45.606;5.302;2023-06-24T09:15:29;7.07;;;4.72;;
23390;SDS011;11868;45.606;5.302;2023-06-24T09:17:56;7.82;;;4.28;;
23390;SDS011;11868;45.606;5.302;2023-06-24T09:20:21;8.40;;;4.38;;
23390;SDS011;11868;45.606;5.302;2023-06-24T09:22:47;4.95;;;4.03;;
23390;SDS011;11868;45.606;5.302;2023-06-24T09:25:20;8.10;;;4.15;;
23390;SDS011;11868;45.606;5.302;2023-06-24T09:27:48;8.13;;;3.90;;
23390;SDS011;11868;45.606;5.302;2023-06-24T09:30:18;7.40;;;4.75;;
23390;SDS011;11868;45.606;5.302;2023-06-24T09:32:45;7.22;;;3.92;;
23390;SDS011;11868;45.606;5.302;2023-06-24T09:35:11;5.78;;;3.85;;
23390;SDS011;11868;45.606;5.302;2023-06-24T09:37:37;5.13;;;3.55;;
23390;SDS011;11868;45.606;5.302;2023-06-24T09:40:03;5.00;;;3.90;;
23390;SDS011;11868;45.606;5.302;2023-06-24T09:42:31;9.30;;;3.70;;
23390;SDS011;11868;45.606;5.302;2023-06-24T09:44:57;7.15;;;3.60;;
23390;SDS011;11868;45.606;5.302;2023-06-24T09:47:22;5.10;;;3.67;;
23390;SDS011;11868;45.606;5.302;2023-06-24T09:49:50;5.20;;;3.78;;
23390;SDS011;11868;45.606;5.302;2023-06-24T09:52:16;6.60;;;3.72;;
23390;SDS011;11868;45.606;5.302;2023-06-24T09:54:43;7.75;;;3.60;;
23390;SDS011;11868;45.606;5.302;2023-06-24T09:57:10;7.28;;;3.80;;
23390;SDS011;11868;45.606;5.302;2023-06-24T09:59:36;7.60;;;3.42;;
23390;SDS011;11868;45.606;5.302;2023-06-24T10:02:02;5.55;;;3.55;;
23390;SDS011;11868;45.606;5.302;2023-06-24T10:04:27;5.15;;;3.88;;
23390;SDS011;11868;45.606;5.302;2023-06-24T10:06:53;7.63;;;3.70;;
23390;SDS011;11868;45.606;5.302;2023-06-24T10:09:19;9.35;;;3.83;;
23390;SDS011;11868;45.606;5.302;2023-06-24T10:11:45;6.68;;;3.72;;
23390;SDS011;11868;45.606;5.302;2023-06-24T10:14:11;6.53;;;3.53;;
23390;SDS011;11868;45.606;5.302;2023-06-24T10:16:37;6.60;;;3.40;;
23390;SDS011;11868;45.606;5.302;2023-06-24T10:19:02;5.93;;;3.92;;
23390;SDS011;11868;45.606;5.302;2023-06-24T10:24:29;6.30;;;3.90;;
23390;SDS011;11868;45.606;5.302;2023-06-24T10:27:03;12.45;;;3.97;;
23390;SDS011;11868;45.606;5.302;2023-06-24T10:29:33;4.38;;;3.33;;
23390;SDS011;11868;45.606;5.302;2023-06-24T10:32:01;4.07;;;3.55;;
23390;SDS011;11868;45.606;5.302;2023-06-24T10:34:38;4.13;;;3.70;;
23390;SDS011;11868;45.606;5.302;2023-06-24T10:37:13;4.93;;;3.63;;
23390;SDS011;11868;45.606;5.302;2023-06-24T10:39:45;7.43;;;3.20;;
23390;SDS011;11868;45.606;5.302;2023-06-24T10:47:38;4.30;;;3.17;;
23390;SDS011;11868;45.606;5.302;2023-06-24T10:50:05;3.88;;;3.20;;
23390;SDS011;11868;45.606;5.302;2023-06-24T10:52:32;3.63;;;3.20;;
23390;SDS011;11868;45.606;5.302;2023-06-24T10:54:58;3.40;;;3.08;;
23390;SDS011;11868;45.606;5.302;2023-06-24T10:57:27;4.88;;;3.10;;
23390;SDS011;11868;45.606;5.302;2023-06-24T11:02:20;4.15;;;3.50;;
23390;SDS011;11868;45.606;5.302;2023-06-24T11:04:50;6.22;;;3.45;;
23390;SDS011;11868;45.606;5.302;2023-06-24T11:07:18;4.85;;;3.40;;
23390;SDS011;11868;45.606;5.302;2023-06-24T11:10:27;10.65;;;3.70;;
23390;SDS011;11868;45.606;5.302;2023-06-24T11:12:38;6.80;;;3.40;;
23390;SDS011;11868;45.606;5.302;2023-06-24T11:15:05;4.10;;;3.25;;
23390;SDS011;11868;45.606;5.302;2023-06-24T11:17:32;4.75;;;3.20;;
23390;SDS011;11868;45.606;5.302;2023-06-24T11:19:58;5.32;;;3.78;;
23390;SDS011;11868;45.606;5.302;2023-06-24T11:22:24;7.10;;;3.40;;
23390;SDS011;11868;45.606;5.302;2023-06-24T11:24:50;7.30;;;3.53;;
23390;SDS011;11868;45.606;5.302;2023-06-24T11:27:16;6.72;;;3.38;;
23390;SDS011;11868;45.606;5.302;2023-06-24T11:29:41;4.55;;;3.25;;
23390;SDS011;11868;45.606;5.302;2023-06-24T11:32:07;6.25;;;3.20;;
23390;SDS011;11868;45.606;5.302;2023-06-24T11:34:34;4.88;;;3.30;;
23390;SDS011;11868;45.606;5.302;2023-06-24T11:37:12;5.13;;;3.60;;
23390;SDS011;11868;45.606;5.302;2023-06-24T11:39:38;4.55;;;3.38;;
23390;SDS011;11868;45.606;5.302;2023-06-24T11:42:05;5.65;;;3.58;;
23390;SDS011;11868;45.606;5.302;2023-06-24T11:44:33;5.65;;;3.40;;
23390;SDS011;11868;45.606;5.302;2023-06-24T11:47:05;9.65;;;3.90;;
23390;SDS011;11868;45.606;5.302;2023-06-24T11:49:31;5.10;;;3.20;;
23390;SDS011;11868;45.606;5.302;2023-06-24T11:51:56;4.25;;;3.03;;
23390;SDS011;11868;45.606;5.302;2023-06-24T11:54:22;3.88;;;3.47;;
23390;SDS011;11868;45.606;5.302;2023-06-24T11:56:52;4.18;;;3.15;;
23390;SDS011;11868;45.606;5.302;2023-06-24T12:01:56;3.25;;;2.88;;
23390;SDS011;11868;45.606;5.302;2023-06-24T12:04:30;3.65;;;3.10;;
23390;SDS011;11868;45.606;5.302;2023-06-24T12:06:56;4.32;;;2.97;;
23390;SDS011;11868;45.606;5.302;2023-06-24T12:09:22;5.88;;;3.72;;
23390;SDS011;11868;45.606;5.302;2023-06-24T12:11:48;4.80;;;3.33;;
23390;SDS011;11868;45.606;5.302;2023-06-24T12:14:13;4.07;;;3.10;;
23390;SDS011;11868;45.606;5.302;2023-06-24T12:16:39;3.40;;;3.10;;
23390;SDS011;11868;45.606;5.302;2023-06-24T12:19:05;4.47;;;3.28;;
23390;SDS011;11868;45.606;5.302;2023-06-24T12:21:33;4.45;;;3.58;;
23390;SDS011;11868;45.606;5.302;2023-06-24T12:23:59;6.03;;;3.53;;
23390;SDS011;11868;45.606;5.302;2023-06-24T12:26:24;5.20;;;2.88;;
23390;SDS011;11868;45.606;5.302;2023-06-24T12:28:49;6.03;;;3.17;;
23390;SDS011;11868;45.606;5.302;2023-06-24T12:31:15;5.68;;;3.15;;
23390;SDS011;11868;45.606;5.302;2023-06-24T12:33:40;5.50;;;3.00;;
23390;SDS011;11868;45.606;5.302;2023-06-24T12:36:05;6.43;;;2.90;;
23390;SDS011;11868;45.606;5.302;2023-06-24T12:38:31;5.63;;;3.40;;
23390;SDS011;11868;45.606;5.302;2023-06-24T12:40:56;4.22;;;3.53;;
23390;SDS011;11868;45.606;5.302;2023-06-24T12:43:22;4.90;;;3.35;;
23390;SDS011;11868;45.606;5.302;2023-06-24T12:45:48;4.22;;;3.20;;
23390;SDS011;11868;45.606;5.302;2023-06-24T12:48:13;4.13;;;3.55;;
23390;SDS011;11868;45.606;5.302;2023-06-24T12:50:39;8.73;;;3.10;;
23390;SDS011;11868;45.606;5.302;2023-06-24T12:53:04;4.18;;;3.40;;
23390;SDS011;11868;45.606;5.302;2023-06-24T12:55:30;7.47;;;3.22;;
23390;SDS011;11868;45.606;5.302;2023-06-24T12:57:55;5.15;;;3.05;;
23390;SDS011;11868;45.606;5.302;2023-06-24T13:00:21;5.05;;;3.28;;
23390;SDS011;11868;45.606;5.302;2023-06-24T13:02:47;3.42;;;2.97;;
23390;SDS011;11868;45.606;5.302;2023-06-24T13:05:13;8.35;;;3.15;;
23390;SDS011;11868;45.606;5.302;2023-06-24T13:07:38;4.45;;;3.08;;
23390;SDS011;11868;45.606;5.302;2023-06-24T13:10:04;3.60;;;3.03;;
23390;SDS011;11868;45.606;5.302;2023-06-24T13:12:31;4.75;;;3.45;;
23390;SDS011;11868;45.606;5.302;2023-06-24T13:14:57;4.35;;;3.30;;
23390;SDS011;11868;45.606;5.302;2023-06-24T13:17:22;4.72;;;3.00;;
23390;SDS011;11868;45.606;5.302;2023-06-24T13:19:47;3.45;;;2.88;;
23390;SDS011;11868;45.606;5.302;2023-06-24T13:22:13;3.88;;;3.20;;
23390;SDS011;11868;45.606;5.302;2023-06-24T13:24:38;4.30;;;3.38;;
23390;SDS011;11868;45.606;5.302;2023-06-24T13:27:04;10.05;;;3.03;;
23390;SDS011;11868;45.606;5.302;2023-06-24T13:29:29;4.10;;;3.20;;
23390;SDS011;11868;45.606;5.302;2023-06-24T13:31:54;4.47;;;2.70;;
23390;SDS011;11868;45.606;5.302;2023-06-24T13:34:20;4.55;;;3.03;;
23390;SDS011;11868;45.606;5.302;2023-06-24T13:36:45;5.47;;;2.90;;
23390;SDS011;11868;45.606;5.302;2023-06-24T13:39:12;4.03;;;3.20;;
23390;SDS011;11868;45.606;5.302;2023-06-24T13:41:37;5.38;;;3.25;;
23390;SDS011;11868;45.606;5.302;2023-06-24T13:44:03;3.45;;;2.80;;
23390;SDS011;11868;45.606;5.302;2023-06-24T13:46:29;6.53;;;2.85;;
23390;SDS011;11868;45.606;5.302;2023-06-24T13:48:55;5.93;;;3.08;;
23390;SDS011;11868;45.606;5.302;2023-06-24T13:51:22;6.78;;;3.05;;
23390;SDS011;11868;45.606;5.302;2023-06-24T13:53:48;3.10;;;2.83;;
23390;SDS011;11868;45.606;5.302;2023-06-24T13:56:15;7.38;;;3.03;;
23390;SDS011;11868;45.606;5.302;2023-06-24T13:58:40;5.80;;;2.92;;
23390;SDS011;11868;45.606;5.302;2023-06-24T14:01:06;3.85;;;3.15;;
23390;SDS011;11868;45.606;5.302;2023-06-24T14:03:31;9.73;;;3.45;;
23390;SDS011;11868;45.606;5.302;2023-06-24T14:05:56;4.72;;;3.20;;
23390;SDS011;11868;45.606;5.302;2023-06-24T14:08:22;4.13;;;2.78;;
23390;SDS011;11868;45.606;5.302;2023-06-24T14:10:48;3.58;;;2.75;;
23390;SDS011;11868;45.606;5.302;2023-06-24T14:13:13;4.20;;;3.38;;
23390;SDS011;11868;45.606;5.302;2023-06-24T14:15:39;6.32;;;2.95;;
23390;SDS011;11868;45.606;5.302;2023-06-24T14:18:05;6.28;;;2.92;;
23390;SDS011;11868;45.606;5.302;2023-06-24T14:20:31;3.78;;;3.33;;
23390;SDS011;11868;45.606;5.302;2023-06-24T14:22:56;4.90;;;3.05;;
23390;SDS011;11868;45.606;5.302;2023-06-24T14:25:21;3.40;;;2.95;;
23390;SDS011;11868;45.606;5.302;2023-06-24T14:27:47;8.43;;;2.97;;
23390;SDS011;11868;45.606;5.302;2023-06-24T14:30:12;5.45;;;3.85;;
23390;SDS011;11868;45.606;5.302;2023-06-24T14:32:37;6.85;;;3.30;;
23390;SDS011;11868;45.606;5.302;2023-06-24T14:35:03;12.30;;;3.55;;
23390;SDS011;11868;45.606;5.302;2023-06-24T14:37:28;4.75;;;3.08;;
23390;SDS011;11868;45.606;5.302;2023-06-24T14:39:54;5.78;;;3.05;;
23390;SDS011;11868;45.606;5.302;2023-06-24T14:42:19;3.72;;;2.80;;
23390;SDS011;11868;45.606;5.302;2023-06-24T14:44:44;6.00;;;3.00;;
23390;SDS011;11868;45.606;5.302;2023-06-24T14:47:10;3.40;;;2.92;;
23390;SDS011;11868;45.606;5.302;2023-06-24T14:49:35;5.10;;;2.80;;
23390;SDS011;11868;45.606;5.302;2023-06-24T14:52:00;4.13;;;3.00;;
23390;SDS011;11868;45.606;5.302;2023-06-24T14:54:26;4.43;;;2.70;;
23390;SDS011;11868;45.606;5.302;2023-06-24T14:56:51;6.35;;;3.05;;
23390;SDS011;11868;45.606;5.302;2023-06-24T14:59:16;7.18;;;2.83;;
23390;SDS011;11868;45.606;5.302;2023-06-24T15:01:42;3.70;;;3.20;;
23390;SDS011;11868;45.606;5.302;2023-06-24T15:04:08;5.13;;;3.28;;
23390;SDS011;11868;45.606;5.302;2023-06-24T15:06:34;4.47;;;3.53;;
23390;SDS011;11868;45.606;5.302;2023-06-24T15:08:59;5.20;;;3.13;;
23390;SDS011;11868;45.606;5.302;2023-06-24T15:11:24;4.18;;;2.83;;